sensor_id;sensor_type;location;lat;lon;timestamp;temperature;humidity
65378;SHT31;51982;51.042;13.806;2022-12-07T00:03:38;6.45;83.31
65378;SHT31;51982;51.042;13.806;2022-12-07T00:06:05;6.50;83.16
65378;SHT31;51982;51.042;13.806;2022-12-07T00:08:31;6.55;83.13
65378;SHT31;51982;51.042;13.806;2022-12-07T00:11:04;6.48;83.02
65378;SHT31;51982;51.042;13.806;2022-12-07T00:13:30;6.49;83.40
65378;SHT31;51982;51.042;13.806;2022-12-07T00:16:00;6.55;83.45
65378;SHT31;51982;51.042;13.806;2022-12-07T00:18:25;6.63;83.35
65378;SHT31;51982;51.042;13.806;2022-12-07T00:20:50;6.57;82.75
65378;SHT31;51982;51.042;13.806;2022-12-07T00:23:15;6.56;82.82
65378;SHT31;51982;51.042;13.806;2022-12-07T00:25:41;6.57;82.89
65378;SHT31;51982;51.042;13.806;2022-12-07T00:28:06;6.56;82.70
65378;SHT31;51982;51.042;13.806;2022-12-07T00:30:32;6.56;82.51
65378;SHT31;51982;51.042;13.806;2022-12-07T00:32:58;6.55;82.82
65378;SHT31;51982;51.042;13.806;2022-12-07T00:35:23;6.55;82.77
65378;SHT31;51982;51.042;13.806;2022-12-07T00:37:48;6.62;83.05
65378;SHT31;51982;51.042;13.806;2022-12-07T00:40:13;6.49;82.08
65378;SHT31;51982;51.042;13.806;2022-12-07T00:42:39;6.48;82.25
65378;SHT31;51982;51.042;13.806;2022-12-07T00:45:04;6.49;82.83
65378;SHT31;51982;51.042;13.806;2022-12-07T00:47:30;6.48;82.46
65378;SHT31;51982;51.042;13.806;2022-12-07T00:49:55;6.43;82.48
65378;SHT31;51982;51.042;13.806;2022-12-07T00:52:20;6.42;82.42
65378;SHT31;51982;51.042;13.806;2022-12-07T00:54:45;6.49;82.66
65378;SHT31;51982;51.042;13.806;2022-12-07T00:57:11;6.49;82.29
65378;SHT31;51982;51.042;13.806;2022-12-07T00:59:36;6.53;82.58
65378;SHT31;51982;51.042;13.806;2022-12-07T01:02:01;6.53;82.09
65378;SHT31;51982;51.042;13.806;2022-12-07T01:04:26;6.53;82.51
65378;SHT31;51982;51.042;13.806;2022-12-07T01:06:52;6.59;82.28
65378;SHT31;51982;51.042;13.806;2022-12-07T01:09:17;6.65;82.14
65378;SHT31;51982;51.042;13.806;2022-12-07T01:11:42;6.57;82.06
65378;SHT31;51982;51.042;13.806;2022-12-07T01:14:08;6.66;82.39
65378;SHT31;51982;51.042;13.806;2022-12-07T01:16:33;6.69;82.24
65378;SHT31;51982;51.042;13.806;2022-12-07T01:19:00;6.69;82.16
65378;SHT31;51982;51.042;13.806;2022-12-07T01:21:30;6.61;82.28
65378;SHT31;51982;51.042;13.806;2022-12-07T01:23:59;6.68;81.68
65378;SHT31;51982;51.042;13.806;2022-12-07T01:26:25;6.73;82.08
65378;SHT31;51982;51.042;13.806;2022-12-07T01:28:50;6.72;81.83
65378;SHT31;51982;51.042;13.806;2022-12-07T01:31:21;6.72;81.96
65378;SHT31;51982;51.042;13.806;2022-12-07T01:33:49;6.73;81.95
65378;SHT31;51982;51.042;13.806;2022-12-07T01:36:36;6.68;81.86
65378;SHT31;51982;51.042;13.806;2022-12-07T01:39:04;6.73;81.86
65378;SHT31;51982;51.042;13.806;2022-12-07T01:41:33;6.73;81.99
65378;SHT31;51982;51.042;13.806;2022-12-07T01:46:40;6.73;81.91
65378;SHT31;51982;51.042;13.806;2022-12-07T01:49:09;6.73;81.97
65378;SHT31;51982;51.042;13.806;2022-12-07T01:51:37;6.73;81.94
65378;SHT31;51982;51.042;13.806;2022-12-07T01:54:04;6.71;81.80
65378;SHT31;51982;51.042;13.806;2022-12-07T01:56:30;6.73;81.85
65378;SHT31;51982;51.042;13.806;2022-12-07T01:58:58;6.77;81.80
65378;SHT31;51982;51.042;13.806;2022-12-07T02:01:24;6.83;81.76
65378;SHT31;51982;51.042;13.806;2022-12-07T02:03:50;6.79;81.64
65378;SHT31;51982;51.042;13.806;2022-12-07T02:06:19;6.77;81.88
65378;SHT31;51982;51.042;13.806;2022-12-07T02:08:46;6.76;81.88
65378;SHT31;51982;51.042;13.806;2022-12-07T02:11:11;6.80;82.06
65378;SHT31;51982;51.042;13.806;2022-12-07T02:13:40;6.75;81.78
65378;SHT31;51982;51.042;13.806;2022-12-07T02:16:10;6.72;82.16
65378;SHT31;51982;51.042;13.806;2022-12-07T02:30:18;6.43;81.94
65378;SHT31;51982;51.042;13.806;2022-12-07T02:33:08;6.39;82.04
65378;SHT31;51982;51.042;13.806;2022-12-07T02:35:43;6.32;82.10
65378;SHT31;51982;51.042;13.806;2022-12-07T02:38:31;6.26;82.17
65378;SHT31;51982;51.042;13.806;2022-12-07T02:41:15;6.26;81.99
65378;SHT31;51982;51.042;13.806;2022-12-07T02:43:45;6.26;82.00
65378;SHT31;51982;51.042;13.806;2022-12-07T02:46:17;6.11;82.12
65378;SHT31;51982;51.042;13.806;2022-12-07T02:48:46;6.11;82.33
65378;SHT31;51982;51.042;13.806;2022-12-07T02:51:12;6.14;82.41
65378;SHT31;51982;51.042;13.806;2022-12-07T02:53:42;6.12;82.45
65378;SHT31;51982;51.042;13.806;2022-12-07T03:08:02;6.22;81.84
65378;SHT31;51982;51.042;13.806;2022-12-07T03:10:48;6.21;82.08
65378;SHT31;51982;51.042;13.806;2022-12-07T03:18:55;6.28;81.87
65378;SHT31;51982;51.042;13.806;2022-12-07T03:21:31;6.17;81.91
65378;SHT31;51982;51.042;13.806;2022-12-07T03:23:59;6.24;82.00
65378;SHT31;51982;51.042;13.806;2022-12-07T03:26:31;6.22;82.03
65378;SHT31;51982;51.042;13.806;2022-12-07T03:29:05;6.25;81.97
65378;SHT31;51982;51.042;13.806;2022-12-07T03:31:39;6.22;82.04
65378;SHT31;51982;51.042;13.806;2022-12-07T03:34:15;6.12;82.04
65378;SHT31;51982;51.042;13.806;2022-12-07T03:36:52;6.11;82.19
65378;SHT31;51982;51.042;13.806;2022-12-07T03:39:25;6.07;81.92
65378;SHT31;51982;51.042;13.806;2022-12-07T03:41:53;6.05;82.08
65378;SHT31;51982;51.042;13.806;2022-12-07T03:44:19;6.01;82.09
65378;SHT31;51982;51.042;13.806;2022-12-07T03:49:36;6.08;82.09
65378;SHT31;51982;51.042;13.806;2022-12-07T03:54:47;6.15;81.86
65378;SHT31;51982;51.042;13.806;2022-12-07T03:57:15;6.14;81.59
65378;SHT31;51982;51.042;13.806;2022-12-07T03:59:42;6.10;81.63
65378;SHT31;51982;51.042;13.806;2022-12-07T04:02:11;6.07;81.60
65378;SHT31;51982;51.042;13.806;2022-12-07T04:04:37;6.07;81.48
65378;SHT31;51982;51.042;13.806;2022-12-07T04:07:02;6.08;81.53
65378;SHT31;51982;51.042;13.806;2022-12-07T04:09:28;6.04;81.51
65378;SHT31;51982;51.042;13.806;2022-12-07T04:11:53;6.05;81.52
65378;SHT31;51982;51.042;13.806;2022-12-07T04:14:18;6.12;81.12
65378;SHT31;51982;51.042;13.806;2022-12-07T04:16:52;6.14;81.37
65378;SHT31;51982;51.042;13.806;2022-12-07T04:19:20;6.20;80.98
65378;SHT31;51982;51.042;13.806;2022-12-07T04:21:46;6.21;80.91
65378;SHT31;51982;51.042;13.806;2022-12-07T04:24:13;6.21;80.94
65378;SHT31;51982;51.042;13.806;2022-12-07T04:26:38;6.24;80.88
65378;SHT31;51982;51.042;13.806;2022-12-07T04:29:03;6.25;80.76
65378;SHT31;51982;51.042;13.806;2022-12-07T04:31:29;6.22;80.56
65378;SHT31;51982;51.042;13.806;2022-12-07T04:33:54;6.21;80.65
65378;SHT31;51982;51.042;13.806;2022-12-07T04:36:19;6.14;80.53
65378;SHT31;51982;51.042;13.806;2022-12-07T04:38:46;6.10;80.67
65378;SHT31;51982;51.042;13.806;2022-12-07T04:41:11;6.02;80.67
65378;SHT31;51982;51.042;13.806;2022-12-07T04:43:36;6.00;80.47
65378;SHT31;51982;51.042;13.806;2022-12-07T04:46:02;5.95;80.55
65378;SHT31;51982;51.042;13.806;2022-12-07T04:48:27;5.94;80.57
65378;SHT31;51982;51.042;13.806;2022-12-07T04:50:53;5.86;80.52
65378;SHT31;51982;51.042;13.806;2022-12-07T04:53:18;5.86;80.75
65378;SHT31;51982;51.042;13.806;2022-12-07T04:55:45;5.78;81.01
65378;SHT31;51982;51.042;13.806;2022-12-07T04:58:11;5.74;80.88
65378;SHT31;51982;51.042;13.806;2022-12-07T05:00:36;5.69;80.87
65378;SHT31;51982;51.042;13.806;2022-12-07T05:03:01;5.63;81.06
65378;SHT31;51982;51.042;13.806;2022-12-07T05:05:27;5.61;81.20
65378;SHT31;51982;51.042;13.806;2022-12-07T05:07:52;5.63;81.25
65378;SHT31;51982;51.042;13.806;2022-12-07T05:10:17;5.60;81.06
65378;SHT31;51982;51.042;13.806;2022-12-07T05:12:42;5.54;81.02
65378;SHT31;51982;51.042;13.806;2022-12-07T05:15:08;5.61;81.31
65378;SHT31;51982;51.042;13.806;2022-12-07T05:17:34;5.66;81.20
65378;SHT31;51982;51.042;13.806;2022-12-07T05:19:59;5.63;81.38
65378;SHT31;51982;51.042;13.806;2022-12-07T05:22:24;5.63;81.31
65378;SHT31;51982;51.042;13.806;2022-12-07T05:24:56;5.66;81.25
65378;SHT31;51982;51.042;13.806;2022-12-07T05:27:21;5.71;81.20
65378;SHT31;51982;51.042;13.806;2022-12-07T05:29:46;5.77;81.23
65378;SHT31;51982;51.042;13.806;2022-12-07T05:32:12;5.83;81.10
65378;SHT31;51982;51.042;13.806;2022-12-07T05:34:37;5.80;80.97
65378;SHT31;51982;51.042;13.806;2022-12-07T05:37:02;5.83;81.17
65378;SHT31;51982;51.042;13.806;2022-12-07T05:39:28;5.80;80.96
65378;SHT31;51982;51.042;13.806;2022-12-07T05:41:53;5.86;81.12
65378;SHT31;51982;51.042;13.806;2022-12-07T05:44:37;5.89;81.14
65378;SHT31;51982;51.042;13.806;2022-12-07T05:47:02;5.90;81.08
65378;SHT31;51982;51.042;13.806;2022-12-07T05:49:28;5.94;81.05
65378;SHT31;51982;51.042;13.806;2022-12-07T05:51:53;6.00;80.88
65378;SHT31;51982;51.042;13.806;2022-12-07T05:54:18;6.04;80.61
65378;SHT31;51982;51.042;13.806;2022-12-07T05:56:44;6.02;80.41
65378;SHT31;51982;51.042;13.806;2022-12-07T05:59:09;6.10;80.74
65378;SHT31;51982;51.042;13.806;2022-12-07T06:04:22;6.10;80.61
65378;SHT31;51982;51.042;13.806;2022-12-07T06:06:47;6.12;80.29
65378;SHT31;51982;51.042;13.806;2022-12-07T06:09:13;6.10;80.31
65378;SHT31;51982;51.042;13.806;2022-12-07T06:11:39;6.12;80.37
65378;SHT31;51982;51.042;13.806;2022-12-07T06:14:23;6.11;80.29
65378;SHT31;51982;51.042;13.806;2022-12-07T06:16:49;6.14;80.38
65378;SHT31;51982;51.042;13.806;2022-12-07T06:19:14;6.18;80.68
65378;SHT31;51982;51.042;13.806;2022-12-07T06:21:40;6.15;80.34
65378;SHT31;51982;51.042;13.806;2022-12-07T06:24:05;6.17;80.57
65378;SHT31;51982;51.042;13.806;2022-12-07T06:26:31;6.17;80.25
65378;SHT31;51982;51.042;13.806;2022-12-07T06:28:56;6.17;80.38
65378;SHT31;51982;51.042;13.806;2022-12-07T06:31:22;6.15;80.43
65378;SHT31;51982;51.042;13.806;2022-12-07T06:33:47;6.18;80.29
65378;SHT31;51982;51.042;13.806;2022-12-07T06:36:12;6.20;80.19
65378;SHT31;51982;51.042;13.806;2022-12-07T06:38:38;6.18;80.18
65378;SHT31;51982;51.042;13.806;2022-12-07T06:41:04;6.21;80.07
65378;SHT31;51982;51.042;13.806;2022-12-07T06:43:29;6.20;79.76
65378;SHT31;51982;51.042;13.806;2022-12-07T06:45:54;6.22;79.86
65378;SHT31;51982;51.042;13.806;2022-12-07T06:48:20;6.22;79.60
65378;SHT31;51982;51.042;13.806;2022-12-07T06:50:46;6.24;79.94
65378;SHT31;51982;51.042;13.806;2022-12-07T06:53:11;6.25;79.93
65378;SHT31;51982;51.042;13.806;2022-12-07T06:55:36;6.24;79.76
65378;SHT31;51982;51.042;13.806;2022-12-07T06:58:02;6.24;80.24
65378;SHT31;51982;51.042;13.806;2022-12-07T07:00:27;6.24;80.06
65378;SHT31;51982;51.042;13.806;2022-12-07T07:02:53;6.28;80.42
65378;SHT31;51982;51.042;13.806;2022-12-07T07:05:18;6.29;80.39
65378;SHT31;51982;51.042;13.806;2022-12-07T07:07:43;6.26;80.54
65378;SHT31;51982;51.042;13.806;2022-12-07T07:10:09;6.32;80.67
65378;SHT31;51982;51.042;13.806;2022-12-07T07:12:34;6.25;81.20
65378;SHT31;51982;51.042;13.806;2022-12-07T07:14:59;6.21;81.83
65378;SHT31;51982;51.042;13.806;2022-12-07T07:17:25;6.22;82.09
65378;SHT31;51982;51.042;13.806;2022-12-07T07:19:50;6.24;82.10
65378;SHT31;51982;51.042;13.806;2022-12-07T07:22:15;6.28;82.23
65378;SHT31;51982;51.042;13.806;2022-12-07T07:24:40;6.20;82.85
65378;SHT31;51982;51.042;13.806;2022-12-07T07:27:06;6.25;82.96
65378;SHT31;51982;51.042;13.806;2022-12-07T07:29:31;6.20;83.32
65378;SHT31;51982;51.042;13.806;2022-12-07T07:31:56;6.11;83.66
65378;SHT31;51982;51.042;13.806;2022-12-07T07:34:21;6.14;84.92
65378;SHT31;51982;51.042;13.806;2022-12-07T07:36:47;6.21;84.22
65378;SHT31;51982;51.042;13.806;2022-12-07T07:39:12;6.24;84.76
65378;SHT31;51982;51.042;13.806;2022-12-07T07:41:38;6.20;84.29
65378;SHT31;51982;51.042;13.806;2022-12-07T07:44:03;6.17;84.10
65378;SHT31;51982;51.042;13.806;2022-12-07T07:46:28;6.18;84.38
65378;SHT31;51982;51.042;13.806;2022-12-07T07:48:53;6.14;84.04
65378;SHT31;51982;51.042;13.806;2022-12-07T07:51:19;6.15;84.29
65378;SHT31;51982;51.042;13.806;2022-12-07T07:53:44;6.12;84.18
65378;SHT31;51982;51.042;13.806;2022-12-07T07:56:09;6.12;84.00
65378;SHT31;51982;51.042;13.806;2022-12-07T07:58:34;6.08;84.46
65378;SHT31;51982;51.042;13.806;2022-12-07T08:01:05;6.05;84.28
65378;SHT31;51982;51.042;13.806;2022-12-07T08:03:30;6.20;84.15
65378;SHT31;51982;51.042;13.806;2022-12-07T08:05:56;6.21;84.07
65378;SHT31;51982;51.042;13.806;2022-12-07T08:08:21;6.24;84.09
65378;SHT31;51982;51.042;13.806;2022-12-07T08:10:47;6.26;84.20
65378;SHT31;51982;51.042;13.806;2022-12-07T08:13:15;6.26;83.94
65378;SHT31;51982;51.042;13.806;2022-12-07T08:15:43;6.32;84.05
65378;SHT31;51982;51.042;13.806;2022-12-07T08:18:08;6.35;83.95
65378;SHT31;51982;51.042;13.806;2022-12-07T08:20:35;6.48;83.80
65378;SHT31;51982;51.042;13.806;2022-12-07T08:23:01;6.38;83.70
65378;SHT31;51982;51.042;13.806;2022-12-07T08:25:27;6.43;83.88
65378;SHT31;51982;51.042;13.806;2022-12-07T08:27:52;6.46;83.50
65378;SHT31;51982;51.042;13.806;2022-12-07T08:30:19;6.55;83.66
65378;SHT31;51982;51.042;13.806;2022-12-07T08:32:45;6.59;83.33
65378;SHT31;51982;51.042;13.806;2022-12-07T08:35:10;6.62;83.16
65378;SHT31;51982;51.042;13.806;2022-12-07T08:37:36;6.61;82.66
65378;SHT31;51982;51.042;13.806;2022-12-07T08:40:03;6.50;83.16
65378;SHT31;51982;51.042;13.806;2022-12-07T08:42:28;6.57;83.21
65378;SHT31;51982;51.042;13.806;2022-12-07T08:45:03;6.63;82.80
65378;SHT31;51982;51.042;13.806;2022-12-07T08:47:29;6.68;82.77
65378;SHT31;51982;51.042;13.806;2022-12-07T08:49:54;6.71;82.60
65378;SHT31;51982;51.042;13.806;2022-12-07T08:52:20;6.79;82.82
65378;SHT31;51982;51.042;13.806;2022-12-07T08:54:45;6.86;82.83
65378;SHT31;51982;51.042;13.806;2022-12-07T08:57:11;6.94;82.49
65378;SHT31;51982;51.042;13.806;2022-12-07T08:59:36;6.90;82.29
65378;SHT31;51982;51.042;13.806;2022-12-07T09:02:04;6.97;82.08
65378;SHT31;51982;51.042;13.806;2022-12-07T09:04:29;7.03;82.08
65378;SHT31;51982;51.042;13.806;2022-12-07T09:06:55;7.03;82.11
65378;SHT31;51982;51.042;13.806;2022-12-07T09:09:20;7.11;82.03
65378;SHT31;51982;51.042;13.806;2022-12-07T09:11:46;7.23;82.04
65378;SHT31;51982;51.042;13.806;2022-12-07T09:14:11;7.30;81.95
65378;SHT31;51982;51.042;13.806;2022-12-07T09:16:37;7.35;81.52
65378;SHT31;51982;51.042;13.806;2022-12-07T09:19:03;7.31;81.01
65378;SHT31;51982;51.042;13.806;2022-12-07T09:21:28;7.32;80.95
65378;SHT31;51982;51.042;13.806;2022-12-07T09:23:53;7.26;81.01
65378;SHT31;51982;51.042;13.806;2022-12-07T09:26:18;7.37;81.06
65378;SHT31;51982;51.042;13.806;2022-12-07T09:28:44;7.44;80.25
65378;SHT31;51982;51.042;13.806;2022-12-07T09:31:09;7.47;80.19
65378;SHT31;51982;51.042;13.806;2022-12-07T09:33:34;7.59;80.41
65378;SHT31;51982;51.042;13.806;2022-12-07T09:35:59;7.59;80.37
65378;SHT31;51982;51.042;13.806;2022-12-07T09:38:25;7.57;80.59
65378;SHT31;51982;51.042;13.806;2022-12-07T09:40:51;7.55;80.25
65378;SHT31;51982;51.042;13.806;2022-12-07T09:43:20;7.57;80.37
65378;SHT31;51982;51.042;13.806;2022-12-07T09:45:47;7.62;80.13
65378;SHT31;51982;51.042;13.806;2022-12-07T09:48:34;7.54;79.89
65378;SHT31;51982;51.042;13.806;2022-12-07T09:51:02;7.61;80.21
65378;SHT31;51982;51.042;13.806;2022-12-07T09:53:37;7.74;80.18
65378;SHT31;51982;51.042;13.806;2022-12-07T09:56:03;7.81;79.89
65378;SHT31;51982;51.042;13.806;2022-12-07T09:58:33;7.90;79.57
65378;SHT31;51982;51.042;13.806;2022-12-07T10:01:05;8.00;79.12
65378;SHT31;51982;51.042;13.806;2022-12-07T10:03:38;8.09;78.79
65378;SHT31;51982;51.042;13.806;2022-12-07T10:06:04;8.05;78.52
65378;SHT31;51982;51.042;13.806;2022-12-07T10:08:33;7.96;78.19
65378;SHT31;51982;51.042;13.806;2022-12-07T10:11:01;7.90;78.45
65378;SHT31;51982;51.042;13.806;2022-12-07T10:13:42;8.13;78.01
65378;SHT31;51982;51.042;13.806;2022-12-07T10:18:49;8.28;77.93
65378;SHT31;51982;51.042;13.806;2022-12-07T10:21:20;8.32;78.17
65378;SHT31;51982;51.042;13.806;2022-12-07T10:24:13;8.41;77.68
65378;SHT31;51982;51.042;13.806;2022-12-07T10:29:38;8.60;77.26
65378;SHT31;51982;51.042;13.806;2022-12-07T10:37:41;8.47;76.70
65378;SHT31;51982;51.042;13.806;2022-12-07T10:40:32;8.40;77.58
65378;SHT31;51982;51.042;13.806;2022-12-07T10:46:24;8.22;77.34
65378;SHT31;51982;51.042;13.806;2022-12-07T10:52:07;8.14;78.19
65378;SHT31;51982;51.042;13.806;2022-12-07T10:55:05;8.03;78.18
65378;SHT31;51982;51.042;13.806;2022-12-07T10:57:56;8.03;78.25
65378;SHT31;51982;51.042;13.806;2022-12-07T11:00:24;7.99;78.71
65378;SHT31;51982;51.042;13.806;2022-12-07T11:08:27;7.88;78.85
65378;SHT31;51982;51.042;13.806;2022-12-07T11:11:09;8.02;79.62
65378;SHT31;51982;51.042;13.806;2022-12-07T11:14:05;7.95;79.29
65378;SHT31;51982;51.042;13.806;2022-12-07T11:16:50;8.12;78.91
65378;SHT31;51982;51.042;13.806;2022-12-07T11:21:56;8.25;78.53
65378;SHT31;51982;51.042;13.806;2022-12-07T11:24:31;8.32;78.60
65378;SHT31;51982;51.042;13.806;2022-12-07T11:30:13;8.16;78.48
65378;SHT31;51982;51.042;13.806;2022-12-07T11:35:45;8.06;78.65
65378;SHT31;51982;51.042;13.806;2022-12-07T11:38:22;8.06;78.79
65378;SHT31;51982;51.042;13.806;2022-12-07T11:40:50;8.03;79.13
65378;SHT31;51982;51.042;13.806;2022-12-07T11:43:27;7.86;80.25
65378;SHT31;51982;51.042;13.806;2022-12-07T11:48:32;7.58;83.16
65378;SHT31;51982;51.042;13.806;2022-12-07T11:51:00;7.67;83.15
65378;SHT31;51982;51.042;13.806;2022-12-07T11:53:39;7.64;82.83
65378;SHT31;51982;51.042;13.806;2022-12-07T11:56:15;7.65;82.72
65378;SHT31;51982;51.042;13.806;2022-12-07T12:01:28;7.71;82.51
65378;SHT31;51982;51.042;13.806;2022-12-07T12:06:34;7.75;82.77
65378;SHT31;51982;51.042;13.806;2022-12-07T12:09:13;7.71;82.79
65378;SHT31;51982;51.042;13.806;2022-12-07T12:12:20;7.71;83.22
65378;SHT31;51982;51.042;13.806;2022-12-07T12:14:57;7.72;83.51
65378;SHT31;51982;51.042;13.806;2022-12-07T12:23:21;7.90;83.53
65378;SHT31;51982;51.042;13.806;2022-12-07T12:25:58;7.95;83.65
65378;SHT31;51982;51.042;13.806;2022-12-07T12:28:52;7.79;83.98
65378;SHT31;51982;51.042;13.806;2022-12-07T12:33:49;7.69;83.93
65378;SHT31;51982;51.042;13.806;2022-12-07T12:44:02;7.64;83.42
65378;SHT31;51982;51.042;13.806;2022-12-07T12:51:53;7.64;82.03
65378;SHT31;51982;51.042;13.806;2022-12-07T12:54:31;7.71;82.43
65378;SHT31;51982;51.042;13.806;2022-12-07T12:57:10;7.55;81.39
65378;SHT31;51982;51.042;13.806;2022-12-07T12:59:56;7.44;80.76
65378;SHT31;51982;51.042;13.806;2022-12-07T13:02:30;7.52;81.22
65378;SHT31;51982;51.042;13.806;2022-12-07T13:15:41;7.13;83.93
65378;SHT31;51982;51.042;13.806;2022-12-07T13:26:17;6.75;84.37
65378;SHT31;51982;51.042;13.806;2022-12-07T13:31:39;6.68;84.67
65378;SHT31;51982;51.042;13.806;2022-12-07T13:34:31;6.65;84.64
65378;SHT31;51982;51.042;13.806;2022-12-07T13:36:59;6.63;85.39
65378;SHT31;51982;51.042;13.806;2022-12-07T13:39:26;6.49;85.40
65378;SHT31;51982;51.042;13.806;2022-12-07T13:41:56;6.62;85.33
65378;SHT31;51982;51.042;13.806;2022-12-07T13:44:26;6.62;85.26
65378;SHT31;51982;51.042;13.806;2022-12-07T13:46:54;6.61;86.00
65378;SHT31;51982;51.042;13.806;2022-12-07T13:49:22;6.56;86.44
65378;SHT31;51982;51.042;13.806;2022-12-07T13:51:48;6.57;86.55
65378;SHT31;51982;51.042;13.806;2022-12-07T13:54:14;6.62;86.67
65378;SHT31;51982;51.042;13.806;2022-12-07T13:56:40;6.73;86.00
65378;SHT31;51982;51.042;13.806;2022-12-07T13:59:21;6.65;86.25
65378;SHT31;51982;51.042;13.806;2022-12-07T14:01:48;6.63;85.99
65378;SHT31;51982;51.042;13.806;2022-12-07T14:04:35;6.71;85.85
65378;SHT31;51982;51.042;13.806;2022-12-07T14:07:18;6.76;85.88
65378;SHT31;51982;51.042;13.806;2022-12-07T14:09:53;6.85;85.30
65378;SHT31;51982;51.042;13.806;2022-12-07T14:12:19;6.97;85.23
65378;SHT31;51982;51.042;13.806;2022-12-07T14:14:48;6.93;85.13
65378;SHT31;51982;51.042;13.806;2022-12-07T14:17:22;6.99;84.58
65378;SHT31;51982;51.042;13.806;2022-12-07T14:19:49;7.00;84.74
65378;SHT31;51982;51.042;13.806;2022-12-07T14:24:51;7.00;85.24
65378;SHT31;51982;51.042;13.806;2022-12-07T14:27:23;7.00;85.11
65378;SHT31;51982;51.042;13.806;2022-12-07T14:29:51;7.07;85.06
65378;SHT31;51982;51.042;13.806;2022-12-07T14:32:25;7.06;85.07
65378;SHT31;51982;51.042;13.806;2022-12-07T14:34:59;7.06;85.12
65378;SHT31;51982;51.042;13.806;2022-12-07T14:37:28;7.04;85.41
65378;SHT31;51982;51.042;13.806;2022-12-07T14:39:55;7.07;85.32
65378;SHT31;51982;51.042;13.806;2022-12-07T14:42:22;7.07;85.33
65378;SHT31;51982;51.042;13.806;2022-12-07T14:44:48;7.07;85.59
65378;SHT31;51982;51.042;13.806;2022-12-07T14:47:13;7.13;85.71
65378;SHT31;51982;51.042;13.806;2022-12-07T14:49:38;7.04;85.75
65378;SHT31;51982;51.042;13.806;2022-12-07T14:52:05;7.06;85.68
65378;SHT31;51982;51.042;13.806;2022-12-07T14:54:31;7.06;85.76
65378;SHT31;51982;51.042;13.806;2022-12-07T14:56:57;7.04;85.75
65378;SHT31;51982;51.042;13.806;2022-12-07T14:59:23;7.00;85.93
65378;SHT31;51982;51.042;13.806;2022-12-07T15:01:48;7.01;85.97
65378;SHT31;51982;51.042;13.806;2022-12-07T15:04:13;7.03;85.84
65378;SHT31;51982;51.042;13.806;2022-12-07T15:06:39;7.06;86.19
65378;SHT31;51982;51.042;13.806;2022-12-07T15:09:04;7.06;86.32
65378;SHT31;51982;51.042;13.806;2022-12-07T15:11:30;7.06;86.45
65378;SHT31;51982;51.042;13.806;2022-12-07T15:13:55;7.04;86.65
65378;SHT31;51982;51.042;13.806;2022-12-07T15:16:33;7.01;86.50
65378;SHT31;51982;51.042;13.806;2022-12-07T15:18:59;7.01;86.41
65378;SHT31;51982;51.042;13.806;2022-12-07T15:21:24;6.99;86.07
65378;SHT31;51982;51.042;13.806;2022-12-07T15:23:52;7.01;85.77
65378;SHT31;51982;51.042;13.806;2022-12-07T15:26:17;6.97;85.73
65378;SHT31;51982;51.042;13.806;2022-12-07T15:28:42;7.00;85.62
65378;SHT31;51982;51.042;13.806;2022-12-07T15:31:12;7.01;85.32
65378;SHT31;51982;51.042;13.806;2022-12-07T15:33:38;7.07;85.22
65378;SHT31;51982;51.042;13.806;2022-12-07T15:36:03;7.06;84.86
65378;SHT31;51982;51.042;13.806;2022-12-07T15:38:28;7.06;84.41
65378;SHT31;51982;51.042;13.806;2022-12-07T15:40:55;7.01;84.39
65378;SHT31;51982;51.042;13.806;2022-12-07T15:43:20;7.07;84.36
65378;SHT31;51982;51.042;13.806;2022-12-07T15:46:05;7.08;84.06
65378;SHT31;51982;51.042;13.806;2022-12-07T15:48:30;7.06;84.12
65378;SHT31;51982;51.042;13.806;2022-12-07T15:51:06;7.04;83.90
65378;SHT31;51982;51.042;13.806;2022-12-07T15:53:32;6.96;83.37
65378;SHT31;51982;51.042;13.806;2022-12-07T15:55:58;6.93;83.84
65378;SHT31;51982;51.042;13.806;2022-12-07T15:58:24;6.92;84.17
65378;SHT31;51982;51.042;13.806;2022-12-07T16:00:49;6.87;84.29
65378;SHT31;51982;51.042;13.806;2022-12-07T16:03:14;6.94;84.67
65378;SHT31;51982;51.042;13.806;2022-12-07T16:05:40;6.92;84.34
65378;SHT31;51982;51.042;13.806;2022-12-07T16:08:05;6.87;83.33
65378;SHT31;51982;51.042;13.806;2022-12-07T16:10:30;6.75;83.56
65378;SHT31;51982;51.042;13.806;2022-12-07T16:12:56;6.69;83.91
65378;SHT31;51982;51.042;13.806;2022-12-07T16:15:21;6.75;84.35
65378;SHT31;51982;51.042;13.806;2022-12-07T16:17:46;6.80;84.61
65378;SHT31;51982;51.042;13.806;2022-12-07T16:20:12;6.80;84.50
65378;SHT31;51982;51.042;13.806;2022-12-07T16:22:37;6.77;84.30
65378;SHT31;51982;51.042;13.806;2022-12-07T16:25:02;6.76;84.36
65378;SHT31;51982;51.042;13.806;2022-12-07T16:27:28;6.77;84.00
65378;SHT31;51982;51.042;13.806;2022-12-07T16:29:53;6.76;84.32
65378;SHT31;51982;51.042;13.806;2022-12-07T16:32:18;6.77;84.41
65378;SHT31;51982;51.042;13.806;2022-12-07T16:34:43;6.75;84.28
65378;SHT31;51982;51.042;13.806;2022-12-07T16:37:26;6.77;84.55
65378;SHT31;51982;51.042;13.806;2022-12-07T16:40:12;6.82;84.46
65378;SHT31;51982;51.042;13.806;2022-12-07T16:42:55;6.80;84.30
65378;SHT31;51982;51.042;13.806;2022-12-07T16:45:21;6.82;84.29
65378;SHT31;51982;51.042;13.806;2022-12-07T16:47:46;6.80;84.32
65378;SHT31;51982;51.042;13.806;2022-12-07T16:50:11;6.80;84.04
65378;SHT31;51982;51.042;13.806;2022-12-07T16:52:37;6.79;84.07
65378;SHT31;51982;51.042;13.806;2022-12-07T16:55:04;6.76;83.84
65378;SHT31;51982;51.042;13.806;2022-12-07T16:57:30;6.76;83.78
65378;SHT31;51982;51.042;13.806;2022-12-07T16:59:57;6.73;83.49
65378;SHT31;51982;51.042;13.806;2022-12-07T17:02:22;6.73;83.27
65378;SHT31;51982;51.042;13.806;2022-12-07T17:04:47;6.59;81.97
65378;SHT31;51982;51.042;13.806;2022-12-07T17:07:15;6.71;83.02
65378;SHT31;51982;51.042;13.806;2022-12-07T17:09:41;6.73;82.69
65378;SHT31;51982;51.042;13.806;2022-12-07T17:12:06;6.72;82.46
65378;SHT31;51982;51.042;13.806;2022-12-07T17:14:31;6.65;82.18
65378;SHT31;51982;51.042;13.806;2022-12-07T17:17:15;6.66;82.71
65378;SHT31;51982;51.042;13.806;2022-12-07T17:19:41;6.71;82.84
65378;SHT31;51982;51.042;13.806;2022-12-07T17:22:07;6.69;82.44
65378;SHT31;51982;51.042;13.806;2022-12-07T17:24:32;6.72;82.29
65378;SHT31;51982;51.042;13.806;2022-12-07T17:27:00;6.72;82.59
65378;SHT31;51982;51.042;13.806;2022-12-07T17:29:26;6.71;81.82
65378;SHT31;51982;51.042;13.806;2022-12-07T17:31:51;6.72;81.97
65378;SHT31;51982;51.042;13.806;2022-12-07T17:34:16;6.71;82.58
65378;SHT31;51982;51.042;13.806;2022-12-07T17:36:42;6.75;83.18
65378;SHT31;51982;51.042;13.806;2022-12-07T17:39:12;6.73;82.37
65378;SHT31;51982;51.042;13.806;2022-12-07T17:41:39;6.75;82.39
65378;SHT31;51982;51.042;13.806;2022-12-07T17:44:23;6.76;82.71
65378;SHT31;51982;51.042;13.806;2022-12-07T17:46:51;6.77;82.65